Time;durP1;ratioP1;P1;durP2;ratioP2;P2;SDS_P1;SDS_P2;PMS_P1;PMS_P2;Temp;Humidity;BMP_temperature;BMP_pressure;BME280_temperature;BME280_humidity;BME280_pressure;Samples;Min_cycle;Max_cycle;Signal;HPM_P1;HPM_P2
2021/07/20 00:02:28;;;;;;;;;;;11.90;94.80;;;;;;5074113;28;19908;-64
2021/07/20 00:04:54;;;;;;;;;;;12.10;94.00;;;;;;5074400;28;19913;-64
2021/07/20 00:07:21;;;;;;;;;;;12.10;93.40;;;;;;5074214;28;20399;-65
2021/07/20 00:09:48;;;;;;;;;;;12.10;93.50;;;;;;5073945;28;19913;-64
2021/07/20 00:12:14;;;;;;;;;;;12.10;93.30;;;;;;5074053;28;19913;-64
2021/07/20 00:14:41;;;;;;;;;;;12.10;93.80;;;;;;5073825;28;20007;-64
2021/07/20 00:17:08;;;;;;;;;;;12.20;93.30;;;;;;5073583;28;19913;-64
2021/07/20 00:19:34;;;;;;;;;;;12.10;93.00;;;;;;5073718;28;19912;-64
2021/07/20 00:22:01;;;;;;;;;;;12.10;92.70;;;;;;5074042;28;20347;-64
2021/07/20 00:24:28;;;;;;;;;;;12.20;93.00;;;;;;5073901;28;19913;-64
2021/07/20 00:26:54;;;;;;;;;;;12.30;93.40;;;;;;5073812;28;20307;-64
2021/07/20 00:29:21;;;;;;;;;;;12.40;92.30;;;;;;5073862;28;19912;-65
2021/07/20 00:31:48;;;;;;;;;;;12.40;92.30;;;;;;5073366;28;20271;-64
2021/07/20 00:34:14;;;;;;;;;;;12.40;92.40;;;;;;5073464;28;20317;-64
2021/07/20 00:36:41;;;;;;;;;;;12.60;92.70;;;;;;5073687;28;19960;-64
2021/07/20 00:39:08;;;;;;;;;;;12.60;92.00;;;;;;5073438;28;20038;-65
2021/07/20 00:41:34;;;;;;;;;;;12.70;92.30;;;;;;5073033;28;19920;-65
2021/07/20 00:44:01;;;;;;;;;;;12.70;92.30;;;;;;5073363;28;19920;-66
2021/07/20 00:46:28;;;;;;;;;;;12.80;92.30;;;;;;5073321;28;19908;-66
2021/07/20 00:48:54;;;;;;;;;;;12.80;91.60;;;;;;5073388;28;19955;-65
2021/07/20 00:51:21;;;;;;;;;;;12.90;92.30;;;;;;5073308;28;19954;-65
2021/07/20 00:53:48;;;;;;;;;;;13.10;91.10;;;;;;5073037;28;19995;-65
2021/07/20 00:56:15;;;;;;;;;;;13.00;90.70;;;;;;5073249;28;19939;-65
2021/07/20 00:58:43;;;;;;;;;;;13.00;90.30;;;;;;5072945;28;19913;-65
2021/07/20 01:01:12;;;;;;;;;;;13.00;89.80;;;;;;5071701;28;20435;-65
2021/07/20 01:03:39;;;;;;;;;;;13.00;90.60;;;;;;5072720;28;20335;-65
2021/07/20 01:06:07;;;;;;;;;;;13.20;90.20;;;;;;5073209;28;19919;-64
2021/07/20 01:08:33;;;;;;;;;;;13.30;90.10;;;;;;5073157;28;20124;-64
2021/07/20 01:11:01;;;;;;;;;;;13.40;90.10;;;;;;5072910;28;19909;-65
2021/07/20 01:13:29;;;;;;;;;;;13.60;86.50;;;;;;5072863;28;20359;-64
2021/07/20 01:15:56;;;;;;;;;;;13.80;86.50;;;;;;5072722;28;20339;-64
2021/07/20 01:18:23;;;;;;;;;;;14.00;85.50;;;;;;5072541;28;19909;-64
2021/07/20 01:20:50;;;;;;;;;;;14.10;84.50;;;;;;5072868;28;19962;-64
2021/07/20 01:23:20;;;;;;;;;;;14.50;84.60;;;;;;5072690;28;19909;-64
2021/07/20 01:25:50;;;;;;;;;;;14.60;83.40;;;;;;5072410;28;20316;-64
2021/07/20 01:28:22;;;;;;;;;;;14.50;82.10;;;;;;5072471;28;19909;-65
2021/07/20 01:30:51;;;;;;;;;;;14.40;82.40;;;;;;5072367;28;19909;-64
2021/07/20 01:33:18;;;;;;;;;;;14.30;83.30;;;;;;5072388;28;19909;-63
2021/07/20 01:35:47;;;;;;;;;;;14.30;82.90;;;;;;5072296;28;19916;-65
2021/07/20 01:38:14;;;;;;;;;;;14.10;83.50;;;;;;5072423;28;20109;-64
2021/07/20 01:40:41;;;;;;;;;;;14.10;83.40;;;;;;5072587;28;19962;-64
2021/07/20 01:43:08;;;;;;;;;;;14.00;84.60;;;;;;5072468;28;20327;-65
2021/07/20 01:45:36;;;;;;;;;;;14.10;84.50;;;;;;5072213;28;19908;-64
2021/07/20 01:48:03;;;;;;;;;;;14.20;86.00;;;;;;5072249;28;19999;-66
2021/07/20 01:50:30;;;;;;;;;;;14.20;83.80;;;;;;5072274;28;19908;-64
2021/07/20 01:52:57;;;;;;;;;;;14.20;85.60;;;;;;5072329;28;19909;-64
2021/07/20 01:55:25;;;;;;;;;;;14.20;84.40;;;;;;5072377;28;19926;-64
2021/07/20 01:57:53;;;;;;;;;;;14.10;83.50;;;;;;5072059;28;19909;-64
2021/07/20 02:00:20;;;;;;;;;;;14.10;83.40;;;;;;5072303;28;19943;-64
2021/07/20 02:03:08;;;;;;;;;;;14.00;85.20;;;;;;5072210;28;19930;-65
2021/07/20 02:08:29;;;;;;;;;;;14.10;82.60;;;;;;5072346;28;20282;-65
2021/07/20 02:11:13;;;;;;;;;;;14.20;83.60;;;;;;5072300;28;19940;-66
2021/07/20 02:13:43;;;;;;;;;;;14.10;84.80;;;;;;5071821;28;20355;-66
2021/07/20 02:16:13;;;;;;;;;;;14.20;85.90;;;;;;5072291;28;19927;-66
2021/07/20 02:18:43;;;;;;;;;;;14.10;84.40;;;;;;5072251;28;19909;-65
2021/07/20 02:21:11;;;;;;;;;;;14.10;84.60;;;;;;5072260;28;20081;-66
2021/07/20 02:23:38;;;;;;;;;;;14.10;85.70;;;;;;5071967;28;19909;-65
2021/07/20 02:26:05;;;;;;;;;;;14.10;86.40;;;;;;5071338;28;19978;-65
2021/07/20 02:28:33;;;;;;;;;;;14.10;86.40;;;;;;5072050;28;19909;-65
2021/07/20 02:31:00;;;;;;;;;;;14.10;86.00;;;;;;5071867;28;19908;-65
2021/07/20 02:33:28;;;;;;;;;;;14.10;86.70;;;;;;5072068;28;19950;-64
2021/07/20 02:35:54;;;;;;;;;;;14.10;85.90;;;;;;5071711;28;19927;-64
2021/07/20 02:38:21;;;;;;;;;;;14.20;85.80;;;;;;5072135;28;20038;-64
2021/07/20 02:40:50;;;;;;;;;;;14.20;86.70;;;;;;5073735;28;19919;-65
2021/07/20 02:43:18;;;;;;;;;;;14.20;88.10;;;;;;5075523;28;20375;-64
2021/07/20 02:45:47;;;;;;;;;;;14.20;85.80;;;;;;5075659;28;19913;-65
2021/07/20 02:48:14;;;;;;;;;;;14.20;85.40;;;;;;5075673;28;20391;-65
2021/07/20 02:50:42;;;;;;;;;;;14.20;87.20;;;;;;5075804;28;19915;-64
2021/07/20 02:53:09;;;;;;;;;;;14.30;87.10;;;;;;5075545;28;20286;-65
2021/07/20 02:55:36;;;;;;;;;;;14.20;87.50;;;;;;5074006;28;19916;-64
2021/07/20 02:58:03;;;;;;;;;;;14.20;86.70;;;;;;5075377;28;19912;-65
2021/07/20 03:00:31;;;;;;;;;;;14.20;87.50;;;;;;5075241;28;19908;-65
2021/07/20 03:02:57;;;;;;;;;;;14.20;87.20;;;;;;5074353;28;19908;-65
2021/07/20 03:05:24;;;;;;;;;;;14.20;87.00;;;;;;5075502;28;19921;-64
2021/07/20 03:07:55;;;;;;;;;;;14.10;86.90;;;;;;5075175;28;19909;-65
2021/07/20 03:10:24;;;;;;;;;;;14.10;86.60;;;;;;5075389;28;20360;-66
2021/07/20 03:12:53;;;;;;;;;;;14.10;87.80;;;;;;5075217;28;20279;-64
2021/07/20 03:15:19;;;;;;;;;;;14.10;87.90;;;;;;5075167;28;19952;-64
2021/07/20 03:17:47;;;;;;;;;;;14.10;88.10;;;;;;5074882;28;20000;-65
2021/07/20 03:20:15;;;;;;;;;;;14.20;88.90;;;;;;5075144;28;20262;-64
2021/07/20 03:22:42;;;;;;;;;;;14.20;88.30;;;;;;5075164;28;19908;-64
2021/07/20 03:25:09;;;;;;;;;;;14.20;88.30;;;;;;5074983;28;19909;-64
2021/07/20 03:27:38;;;;;;;;;;;14.20;89.40;;;;;;5074748;28;19959;-65
2021/07/20 03:30:05;;;;;;;;;;;14.10;88.40;;;;;;5074874;28;19912;-64
2021/07/20 03:32:33;;;;;;;;;;;14.10;89.20;;;;;;5074722;28;19971;-65
2021/07/20 03:35:00;;;;;;;;;;;14.10;90.20;;;;;;5074655;28;20247;-64
2021/07/20 03:37:26;;;;;;;;;;;14.10;90.30;;;;;;5074884;28;19909;-64
2021/07/20 03:39:55;;;;;;;;;;;14.10;90.00;;;;;;5074484;28;19916;-65
2021/07/20 03:42:23;;;;;;;;;;;14.10;90.40;;;;;;5074608;28;19923;-64
2021/07/20 03:44:50;;;;;;;;;;;14.10;90.50;;;;;;5074548;28;20015;-65
2021/07/20 03:47:17;;;;;;;;;;;14.10;90.90;;;;;;5074413;28;19915;-66
2021/07/20 03:49:44;;;;;;;;;;;14.00;90.90;;;;;;5074503;28;19909;-67
2021/07/20 03:52:13;;;;;;;;;;;14.00;90.70;;;;;;5073855;28;20004;-64
2021/07/20 03:54:40;;;;;;;;;;;14.00;90.80;;;;;;5074351;28;19916;-64
2021/07/20 03:57:07;;;;;;;;;;;13.90;90.80;;;;;;5074719;28;19954;-64
2021/07/20 03:59:34;;;;;;;;;;;13.90;90.60;;;;;;5074371;28;19987;-64
2021/07/20 04:02:01;;;;;;;;;;;13.90;90.80;;;;;;5074149;28;20378;-64
2021/07/20 04:04:34;;;;;;;;;;;13.90;91.00;;;;;;5074203;28;19986;-65
2021/07/20 04:07:01;;;;;;;;;;;13.90;91.30;;;;;;5074286;28;19962;-65
2021/07/20 04:09:28;;;;;;;;;;;13.90;91.10;;;;;;5074074;28;19952;-64
2021/07/20 04:11:56;;;;;;;;;;;13.90;91.40;;;;;;5073873;28;19962;-64
2021/07/20 04:14:23;;;;;;;;;;;13.80;91.60;;;;;;5073870;28;19916;-64
2021/07/20 04:16:49;;;;;;;;;;;13.80;91.30;;;;;;5073570;28;20043;-64
2021/07/20 04:19:16;;;;;;;;;;;13.80;91.80;;;;;;5073845;28;19919;-64
2021/07/20 04:21:43;;;;;;;;;;;13.80;91.60;;;;;;5073748;28;20007;-64
2021/07/20 04:24:11;;;;;;;;;;;13.80;91.50;;;;;;5073827;28;20384;-64
2021/07/20 04:26:41;;;;;;;;;;;13.80;91.80;;;;;;5073820;28;20038;-64
2021/07/20 04:29:07;;;;;;;;;;;13.80;91.70;;;;;;5073871;28;19909;-64
2021/07/20 04:31:34;;;;;;;;;;;13.80;91.50;;;;;;5073411;28;19913;-64
2021/07/20 04:34:01;;;;;;;;;;;13.80;91.80;;;;;;5073790;28;19909;-64
2021/07/20 04:36:28;;;;;;;;;;;13.80;92.00;;;;;;5073602;28;19924;-64
2021/07/20 04:38:56;;;;;;;;;;;13.80;92.00;;;;;;5073521;28;19947;-63
2021/07/20 04:41:23;;;;;;;;;;;13.80;91.80;;;;;;5073350;28;19999;-64
2021/07/20 04:43:50;;;;;;;;;;;13.80;91.70;;;;;;5072993;28;20354;-64
2021/07/20 04:46:18;;;;;;;;;;;13.80;91.80;;;;;;5073361;28;19992;-64
2021/07/20 04:48:45;;;;;;;;;;;13.90;91.70;;;;;;5073538;28;19913;-64
2021/07/20 04:51:12;;;;;;;;;;;13.80;91.80;;;;;;5073401;28;20314;-65
2021/07/20 04:53:39;;;;;;;;;;;13.80;91.80;;;;;;5072979;28;19908;-64
2021/07/20 04:56:06;;;;;;;;;;;13.80;92.00;;;;;;5073027;28;19923;-64
2021/07/20 04:58:34;;;;;;;;;;;13.90;91.50;;;;;;5072687;28;20007;-64
2021/07/20 05:01:02;;;;;;;;;;;13.80;91.80;;;;;;5073057;28;19912;-64
2021/07/20 05:03:31;;;;;;;;;;;13.80;92.10;;;;;;5072253;28;20374;-64
2021/07/20 05:05:58;;;;;;;;;;;13.80;91.90;;;;;;5072804;28;19908;-64
2021/07/20 05:08:27;;;;;;;;;;;13.80;91.60;;;;;;5073004;28;19913;-64
2021/07/20 05:10:57;;;;;;;;;;;13.80;92.00;;;;;;5072764;28;20277;-64
2021/07/20 05:13:24;;;;;;;;;;;13.80;92.00;;;;;;5072674;28;20279;-64
2021/07/20 05:15:55;;;;;;;;;;;13.80;92.40;;;;;;5072398;28;19923;-64
2021/07/20 05:18:22;;;;;;;;;;;13.80;92.70;;;;;;5072795;28;19916;-64
2021/07/20 05:20:49;;;;;;;;;;;13.80;92.50;;;;;;5072582;28;19916;-65
2021/07/20 05:23:18;;;;;;;;;;;13.80;92.70;;;;;;5072873;28;19916;-64
2021/07/20 05:25:46;;;;;;;;;;;13.70;92.60;;;;;;5072339;28;19912;-64
2021/07/20 05:28:13;;;;;;;;;;;13.70;92.50;;;;;;5072529;28;20046;-64
2021/07/20 05:30:41;;;;;;;;;;;13.70;92.70;;;;;;5072653;28;19909;-64
2021/07/20 05:33:08;;;;;;;;;;;13.70;92.50;;;;;;5072764;28;19909;-64
2021/07/20 05:35:35;;;;;;;;;;;13.70;92.60;;;;;;5072330;28;19962;-65
2021/07/20 05:38:02;;;;;;;;;;;13.70;92.70;;;;;;5072557;28;19916;-65
2021/07/20 05:40:29;;;;;;;;;;;13.70;92.80;;;;;;5072692;28;19908;-64
2021/07/20 05:42:57;;;;;;;;;;;13.70;92.90;;;;;;5072489;28;19947;-64
2021/07/20 05:45:24;;;;;;;;;;;13.80;92.60;;;;;;5072318;28;19912;-64
2021/07/20 05:47:51;;;;;;;;;;;13.80;92.90;;;;;;5072817;28;19940;-65
2021/07/20 05:50:18;;;;;;;;;;;13.90;92.80;;;;;;5073008;28;19913;-64
2021/07/20 05:52:46;;;;;;;;;;;13.90;92.80;;;;;;5072300;28;19908;-64
2021/07/20 05:55:14;;;;;;;;;;;13.90;92.80;;;;;;5072269;28;19916;-65
2021/07/20 05:57:41;;;;;;;;;;;13.90;92.40;;;;;;5072016;28;20351;-65
2021/07/20 06:00:08;;;;;;;;;;;13.90;92.50;;;;;;5071939;28;20239;-62
2021/07/20 06:02:39;;;;;;;;;;;13.80;92.80;;;;;;5072168;28;20286;-64
2021/07/20 06:05:09;;;;;;;;;;;13.80;92.60;;;;;;5072231;28;19916;-64
2021/07/20 06:07:37;;;;;;;;;;;13.90;93.30;;;;;;5072299;28;19909;-65
2021/07/20 06:10:04;;;;;;;;;;;13.80;93.00;;;;;;5104745;28;20468;-65
2021/07/20 06:12:31;;;;;;;;;;;13.90;93.20;;;;;;5072294;28;19909;-65
2021/07/20 06:14:59;;;;;;;;;;;13.80;93.20;;;;;;5072488;28;19913;-65
2021/07/20 06:17:26;;;;;;;;;;;13.80;93.50;;;;;;5076038;28;20260;-64
2021/07/20 06:19:57;;;;;;;;;;;13.80;93.50;;;;;;5075581;28;19908;-62
2021/07/20 06:22:24;;;;;;;;;;;13.90;93.10;;;;;;5076041;28;19952;-63
2021/07/20 06:24:52;;;;;;;;;;;13.80;93.40;;;;;;5076013;28;20018;-64
2021/07/20 06:27:19;;;;;;;;;;;13.80;93.70;;;;;;5076024;28;19909;-63
2021/07/20 06:29:47;;;;;;;;;;;13.80;93.70;;;;;;5075501;28;20274;-63
2021/07/20 06:32:14;;;;;;;;;;;13.80;94.00;;;;;;5075995;28;19940;-64
2021/07/20 06:34:41;;;;;;;;;;;13.80;93.70;;;;;;5075678;28;20347;-63
2021/07/20 06:37:08;;;;;;;;;;;13.80;93.90;;;;;;5075780;28;19963;-64
2021/07/20 06:39:37;;;;;;;;;;;13.80;93.90;;;;;;5075556;28;19909;-64
2021/07/20 06:42:04;;;;;;;;;;;13.80;94.10;;;;;;5075969;28;19915;-63
2021/07/20 06:44:32;;;;;;;;;;;13.80;94.20;;;;;;5075483;28;19955;-64
2021/07/20 06:47:00;;;;;;;;;;;13.70;94.50;;;;;;5075675;28;19912;-64
2021/07/20 06:49:27;;;;;;;;;;;13.70;94.40;;;;;;5075110;28;19965;-65
2021/07/20 06:51:54;;;;;;;;;;;13.70;94.70;;;;;;5075722;28;20035;-63
2021/07/20 06:54:21;;;;;;;;;;;13.70;94.60;;;;;;5075479;28;19916;-63
2021/07/20 06:56:52;;;;;;;;;;;13.70;94.40;;;;;;5075357;28;19948;-63
2021/07/20 06:59:20;;;;;;;;;;;13.70;94.40;;;;;;5074148;28;20278;-63
2021/07/20 07:01:46;;;;;;;;;;;13.70;94.40;;;;;;5075205;28;19965;-63
2021/07/20 07:04:31;;;;;;;;;;;13.70;94.70;;;;;;5075338;28;19909;-63
2021/07/20 07:06:58;;;;;;;;;;;13.70;94.50;;;;;;5075410;28;20266;-63
2021/07/20 07:09:29;;;;;;;;;;;13.70;94.50;;;;;;5074990;28;19915;-63
2021/07/20 07:11:57;;;;;;;;;;;13.70;94.70;;;;;;5075285;28;19912;-63
2021/07/20 07:14:24;;;;;;;;;;;13.70;94.60;;;;;;5074990;28;20298;-62
2021/07/20 07:16:53;;;;;;;;;;;13.70;94.50;;;;;;5075022;28;19997;-63
2021/07/20 07:19:21;;;;;;;;;;;13.60;94.60;;;;;;5075040;28;20258;-63
2021/07/20 07:21:48;;;;;;;;;;;13.60;95.00;;;;;;5074847;28;20370;-62
2021/07/20 07:24:15;;;;;;;;;;;13.60;94.70;;;;;;5075053;28;19916;-63
2021/07/20 07:26:43;;;;;;;;;;;13.60;94.60;;;;;;5073785;28;19909;-63
2021/07/20 07:29:10;;;;;;;;;;;13.60;94.70;;;;;;5075049;28;20008;-63
2021/07/20 07:31:37;;;;;;;;;;;13.60;94.70;;;;;;5074707;28;19909;-63
2021/07/20 07:34:04;;;;;;;;;;;13.60;94.70;;;;;;5074689;28;20386;-62
2021/07/20 07:36:31;;;;;;;;;;;13.60;94.60;;;;;;5074640;28;20434;-63
2021/07/20 07:39:02;;;;;;;;;;;13.60;94.70;;;;;;5074649;28;20267;-65
2021/07/20 07:41:33;;;;;;;;;;;13.60;94.80;;;;;;5072006;28;20316;-65
2021/07/20 07:44:01;;;;;;;;;;;13.60;95.10;;;;;;5072388;28;19921;-65
2021/07/20 07:46:30;;;;;;;;;;;13.50;95.10;;;;;;5072341;28;19966;-65
2021/07/20 07:48:56;;;;;;;;;;;13.50;95.20;;;;;;5072400;28;19909;-65
2021/07/20 07:51:23;;;;;;;;;;;13.50;95.00;;;;;;5072394;28;19916;-65
2021/07/20 07:53:52;;;;;;;;;;;13.50;94.90;;;;;;5071671;28;19919;-65
2021/07/20 07:56:19;;;;;;;;;;;13.50;95.30;;;;;;5072202;28;19920;-65
2021/07/20 07:58:46;;;;;;;;;;;13.50;95.20;;;;;;5072579;28;19912;-65
2021/07/20 08:01:14;;;;;;;;;;;13.50;95.40;;;;;;5072144;28;19912;-63
2021/07/20 08:03:43;;;;;;;;;;;13.50;95.80;;;;;;5071954;28;19913;-62
2021/07/20 08:06:10;;;;;;;;;;;13.50;95.90;;;;;;5071742;28;20382;-62
2021/07/20 08:08:39;;;;;;;;;;;13.50;95.70;;;;;;5072112;28;19915;-65
2021/07/20 08:11:08;;;;;;;;;;;13.50;95.30;;;;;;5072075;28;19909;-62
2021/07/20 08:13:36;;;;;;;;;;;13.40;95.70;;;;;;5071786;28;20009;-63
2021/07/20 08:16:03;;;;;;;;;;;13.40;95.50;;;;;;5071707;28;19969;-63
2021/07/20 08:18:29;;;;;;;;;;;13.40;96.10;;;;;;5072142;28;19940;-64
2021/07/20 08:21:06;;;;;;;;;;;13.40;95.80;;;;;;5071459;28;20007;-62
2021/07/20 08:23:34;;;;;;;;;;;13.40;95.80;;;;;;5071696;28;20268;-63
2021/07/20 08:26:13;;;;;;;;;;;13.40;95.60;;;;;;5071933;28;20286;-65
2021/07/20 08:28:39;;;;;;;;;;;13.30;95.70;;;;;;5071583;28;19909;-64
2021/07/20 08:31:08;;;;;;;;;;;13.30;96.00;;;;;;5071498;28;19916;-64
2021/07/20 08:33:37;;;;;;;;;;;13.30;95.80;;;;;;5071115;28;19926;-65
2021/07/20 08:36:04;;;;;;;;;;;13.30;95.70;;;;;;5071416;28;19920;-64
2021/07/20 08:38:34;;;;;;;;;;;13.20;95.80;;;;;;5071342;28;19954;-64
2021/07/20 08:41:06;;;;;;;;;;;13.30;95.70;;;;;;5071591;28;20334;-64
2021/07/20 08:43:50;;;;;;;;;;;13.30;95.50;;;;;;5071120;28;20333;-63
2021/07/20 08:46:20;;;;;;;;;;;13.30;95.40;;;;;;5071048;28;19912;-64
2021/07/20 08:48:57;;;;;;;;;;;13.30;94.80;;;;;;5071436;28;19913;-64
2021/07/20 08:51:45;;;;;;;;;;;13.30;95.40;;;;;;5071159;28;20125;-64
2021/07/20 08:54:23;;;;;;;;;;;13.30;95.50;;;;;;5071252;28;19912;-65
2021/07/20 08:56:51;;;;;;;;;;;13.30;95.90;;;;;;5071205;28;19920;-64
2021/07/20 08:59:22;;;;;;;;;;;13.30;95.70;;;;;;5070527;28;19920;-65
2021/07/20 09:01:49;;;;;;;;;;;13.20;95.90;;;;;;5070875;28;19924;-64
2021/07/20 09:04:18;;;;;;;;;;;13.10;95.80;;;;;;5070937;28;19913;-65
2021/07/20 09:06:49;;;;;;;;;;;13.10;96.20;;;;;;5073026;28;19975;-65
2021/07/20 09:09:20;;;;;;;;;;;13.00;96.40;;;;;;5072776;28;19908;-64
2021/07/20 09:11:47;;;;;;;;;;;13.00;96.30;;;;;;5072785;28;19937;-64
2021/07/20 09:14:14;;;;;;;;;;;13.10;96.50;;;;;;5072897;28;19915;-64
2021/07/20 09:16:45;;;;;;;;;;;13.00;96.50;;;;;;5072862;28;20302;-64
2021/07/20 09:19:15;;;;;;;;;;;13.00;96.70;;;;;;5072841;28;19908;-64
2021/07/20 09:21:45;;;;;;;;;;;13.00;96.60;;;;;;5072711;28;19944;-65
2021/07/20 09:24:15;;;;;;;;;;;13.00;96.60;;;;;;5072728;28;20398;-65
2021/07/20 09:26:46;;;;;;;;;;;13.00;96.70;;;;;;5072645;28;19991;-64
2021/07/20 09:29:17;;;;;;;;;;;12.90;96.60;;;;;;5072552;28;19912;-64
2021/07/20 09:31:46;;;;;;;;;;;12.90;96.80;;;;;;5072461;28;20367;-64
2021/07/20 09:34:26;;;;;;;;;;;13.00;96.50;;;;;;5072585;28;19962;-64
2021/07/20 09:36:57;;;;;;;;;;;12.90;96.50;;;;;;5072734;28;19959;-64
2021/07/20 09:39:35;;;;;;;;;;;12.90;96.60;;;;;;5072375;28;20443;-64
2021/07/20 09:42:31;;;;;;;;;;;12.90;96.80;;;;;;5072456;28;20271;-64
2021/07/20 09:44:57;;;;;;;;;;;12.90;96.80;;;;;;5067355;28;20561;-64
2021/07/20 09:47:37;;;;;;;;;;;12.90;96.80;;;;;;5072445;28;19974;-64
2021/07/20 09:50:10;;;;;;;;;;;12.90;96.60;;;;;;5071959;28;19912;-64
2021/07/20 09:52:42;;;;;;;;;;;12.90;96.60;;;;;;5072581;28;19944;-64
2021/07/20 09:55:22;;;;;;;;;;;12.90;96.80;;;;;;5072436;28;19920;-64
2021/07/20 09:57:51;;;;;;;;;;;12.90;97.30;;;;;;5072132;28;19916;-65
2021/07/20 10:00:23;;;;;;;;;;;12.90;96.90;;;;;;5072107;28;20407;-64
2021/07/20 10:03:07;;;;;;;;;;;12.90;96.70;;;;;;5072226;28;19908;-64
2021/07/20 10:05:39;;;;;;;;;;;12.90;96.70;;;;;;5072204;28;19922;-64
2021/07/20 10:08:12;;;;;;;;;;;12.90;96.70;;;;;;5072399;28;20367;-64
2021/07/20 10:10:43;;;;;;;;;;;12.90;97.00;;;;;;5072375;28;20347;-64
2021/07/20 10:13:25;;;;;;;;;;;12.90;96.70;;;;;;5072538;28;19962;-64
2021/07/20 10:15:51;;;;;;;;;;;12.80;96.60;;;;;;5071971;28;19917;-64
2021/07/20 10:18:21;;;;;;;;;;;12.80;96.80;;;;;;5072200;28;20425;-65
2021/07/20 10:20:51;;;;;;;;;;;12.80;96.80;;;;;;5072158;28;19909;-64
2021/07/20 10:23:24;;;;;;;;;;;12.80;96.80;;;;;;5071983;28;19913;-64
2021/07/20 10:26:02;;;;;;;;;;;12.80;97.10;;;;;;5071876;28;19909;-64
2021/07/20 10:28:49;;;;;;;;;;;12.80;97.20;;;;;;5072010;28;20286;-64
2021/07/20 10:31:22;;;;;;;;;;;12.80;97.20;;;;;;5060346;28;19909;-65
2021/07/20 10:33:50;;;;;;;;;;;12.70;97.10;;;;;;5071283;28;19999;-64
2021/07/20 10:36:33;;;;;;;;;;;12.70;96.90;;;;;;5071919;28;20321;-65
2021/07/20 10:39:10;;;;;;;;;;;12.70;97.20;;;;;;5071839;28;19963;-65
2021/07/20 10:41:41;;;;;;;;;;;12.70;97.30;;;;;;5071792;28;20124;-65
2021/07/20 10:44:13;;;;;;;;;;;12.60;96.90;;;;;;5071390;28;19924;-65
2021/07/20 10:46:41;;;;;;;;;;;12.70;97.30;;;;;;5071873;28;19909;-65
2021/07/20 10:49:22;;;;;;;;;;;12.70;97.40;;;;;;5071158;28;20018;-65
2021/07/20 10:51:50;;;;;;;;;;;12.70;97.50;;;;;;5071798;28;19912;-65
2021/07/20 10:54:23;;;;;;;;;;;12.70;97.40;;;;;;5071850;28;20329;-65
2021/07/20 10:56:56;;;;;;;;;;;12.70;97.10;;;;;;5071779;28;19920;-65
2021/07/20 10:59:41;;;;;;;;;;;12.70;97.20;;;;;;5071611;28;19917;-65
2021/07/20 11:02:21;;;;;;;;;;;12.70;97.60;;;;;;5073669;28;20259;-64
2021/07/20 11:04:54;;;;;;;;;;;12.70;97.30;;;;;;5075613;28;19909;-64
2021/07/20 11:07:40;;;;;;;;;;;12.60;97.00;;;;;;5075479;28;19916;-64
2021/07/20 11:10:09;;;;;;;;;;;12.60;97.30;;;;;;5074998;28;19908;-64
2021/07/20 11:12:38;;;;;;;;;;;12.70;97.80;;;;;;5074991;28;20393;-65
2021/07/20 11:15:05;;;;;;;;;;;12.70;97.60;;;;;;5092266;28;20366;-65
2021/07/20 11:17:33;;;;;;;;;;;12.60;97.50;;;;;;5092647;28;19938;-64
2021/07/20 11:20:02;;;;;;;;;;;12.60;97.70;;;;;;5093203;28;19908;-64
2021/07/20 11:22:29;;;;;;;;;;;12.60;96.90;;;;;;5093259;28;19912;-64
2021/07/20 11:24:56;;;;;;;;;;;12.60;97.00;;;;;;5093227;28;19912;-65
2021/07/20 11:27:23;;;;;;;;;;;12.60;97.40;;;;;;5092861;28;19951;-64
2021/07/20 11:29:51;;;;;;;;;;;12.70;97.10;;;;;;5092712;28;19919;-65
2021/07/20 11:32:22;;;;;;;;;;;12.60;96.70;;;;;;5092436;28;19999;-64
2021/07/20 11:34:53;;;;;;;;;;;12.70;97.50;;;;;;5093177;28;20265;-64
2021/07/20 11:37:24;;;;;;;;;;;12.70;97.50;;;;;;5092943;28;19965;-65
2021/07/20 11:40:00;;;;;;;;;;;12.70;97.90;;;;;;5092182;28;19912;-65
2021/07/20 11:42:33;;;;;;;;;;;12.80;97.20;;;;;;5092912;28;19916;-65
2021/07/20 11:45:09;;;;;;;;;;;12.70;97.80;;;;;;5092443;28;19931;-65
2021/07/20 11:47:42;;;;;;;;;;;12.70;97.10;;;;;;5092511;28;20010;-64
2021/07/20 11:50:11;;;;;;;;;;;12.70;97.00;;;;;;5092605;28;19908;-64
2021/07/20 11:52:47;;;;;;;;;;;12.70;97.10;;;;;;5092627;28;19908;-64
2021/07/20 11:55:27;;;;;;;;;;;12.60;97.30;;;;;;5092398;28;19912;-64
2021/07/20 11:58:02;;;;;;;;;;;12.60;99.40;;;;;;5092207;28;19912;-64
2021/07/20 12:00:29;;;;;;;;;;;12.50;99.90;;;;;;5092160;28;20289;-64
2021/07/20 12:03:08;;;;;;;;;;;12.40;99.90;;;;;;5092298;28;19983;-65
2021/07/20 12:05:53;;;;;;;;;;;12.20;99.90;;;;;;5092090;28;19908;-64
2021/07/20 12:08:26;;;;;;;;;;;12.10;99.90;;;;;;5092186;28;19962;-64
2021/07/20 12:10:56;;;;;;;;;;;12.00;99.90;;;;;;5092275;28;19908;-64
2021/07/20 12:13:22;;;;;;;;;;;12.00;99.90;;;;;;5091498;28;19908;-64
2021/07/20 12:15:57;;;;;;;;;;;12.00;99.90;;;;;;5091161;28;20366;-64
2021/07/20 12:18:23;;;;;;;;;;;12.10;99.90;;;;;;5092309;28;19915;-64
2021/07/20 12:20:51;;;;;;;;;;;12.10;99.90;;;;;;5091549;28;19908;-64
2021/07/20 12:23:18;;;;;;;;;;;12.10;99.90;;;;;;5084536;28;19935;-65
2021/07/20 12:25:45;;;;;;;;;;;12.10;99.90;;;;;;5071615;28;19916;-66
2021/07/20 12:28:12;;;;;;;;;;;11.90;99.90;;;;;;5071608;28;19909;-65
2021/07/20 12:30:38;;;;;;;;;;;11.80;99.90;;;;;;5071858;28;20471;-65
2021/07/20 12:33:13;;;;;;;;;;;11.60;99.90;;;;;;5071516;28;20334;-64
2021/07/20 12:35:43;;;;;;;;;;;11.60;99.90;;;;;;5071608;28;19920;-65
2021/07/20 12:38:11;;;;;;;;;;;11.50;99.90;;;;;;5071589;28;19955;-65
2021/07/20 12:40:38;;;;;;;;;;;11.50;99.90;;;;;;5071540;28;19913;-64
2021/07/20 12:43:06;;;;;;;;;;;11.50;99.90;;;;;;5071470;28;19920;-65
2021/07/20 12:45:33;;;;;;;;;;;11.50;99.90;;;;;;5079451;28;19960;-65
2021/07/20 12:48:02;;;;;;;;;;;11.50;99.90;;;;;;5091590;28;20278;-65
2021/07/20 12:50:28;;;;;;;;;;;11.50;99.90;;;;;;5091371;28;19908;-65
2021/07/20 12:52:56;;;;;;;;;;;11.60;99.90;;;;;;5091444;28;20377;-65
2021/07/20 12:55:24;;;;;;;;;;;11.60;99.90;;;;;;5091283;28;19916;-65
2021/07/20 12:57:51;;;;;;;;;;;11.60;99.90;;;;;;5090968;28;19912;-66
2021/07/20 13:00:26;;;;;;;;;;;11.60;99.90;;;;;;5090384;28;20370;-65
2021/07/20 13:02:53;;;;;;;;;;;11.70;99.90;;;;;;5091056;28;20108;-65
2021/07/20 13:05:23;;;;;;;;;;;11.70;99.90;;;;;;5091157;28;19915;-65
2021/07/20 13:07:50;;;;;;;;;;;11.70;99.90;;;;;;5090771;28;19908;-65
2021/07/20 13:10:18;;;;;;;;;;;11.70;99.90;;;;;;5091180;28;19908;-65
2021/07/20 13:12:46;;;;;;;;;;;11.70;99.90;;;;;;5090534;28;20274;-65
2021/07/20 13:15:21;;;;;;;;;;;11.70;99.90;;;;;;5090861;28;20365;-65
2021/07/20 13:17:51;;;;;;;;;;;11.70;99.90;;;;;;5090889;28;20389;-66
2021/07/20 13:20:22;;;;;;;;;;;11.70;99.90;;;;;;5090995;28;19913;-66
2021/07/20 13:22:51;;;;;;;;;;;11.70;99.90;;;;;;5091071;28;19930;-65
2021/07/20 13:25:18;;;;;;;;;;;11.80;99.90;;;;;;5089699;28;20355;-64
2021/07/20 13:27:46;;;;;;;;;;;11.90;99.90;;;;;;5090676;28;19964;-65
2021/07/20 13:30:23;;;;;;;;;;;11.90;99.90;;;;;;5090947;28;20425;-65
2021/07/20 13:32:50;;;;;;;;;;;11.90;99.90;;;;;;5090759;28;19965;-65
2021/07/20 13:35:18;;;;;;;;;;;11.90;99.80;;;;;;5090685;28;20282;-65
2021/07/20 13:37:45;;;;;;;;;;;11.90;99.90;;;;;;5090417;28;19998;-65
2021/07/20 13:40:13;;;;;;;;;;;11.80;99.90;;;;;;5090969;28;19946;-65
2021/07/20 13:42:41;;;;;;;;;;;11.80;99.90;;;;;;5090480;28;19912;-63
2021/07/20 13:45:09;;;;;;;;;;;11.70;99.90;;;;;;5090580;28;20419;-66
2021/07/20 13:47:55;;;;;;;;;;;11.70;99.90;;;;;;5090360;28;19964;-65
2021/07/20 13:50:28;;;;;;;;;;;11.80;99.90;;;;;;5090280;28;19928;-65
2021/07/20 13:52:57;;;;;;;;;;;11.70;99.90;;;;;;5090617;28;20617;-65
2021/07/20 13:55:25;;;;;;;;;;;11.70;99.90;;;;;;5090550;28;19943;-66
2021/07/20 13:57:52;;;;;;;;;;;11.70;99.90;;;;;;5090087;28;19913;-65
2021/07/20 14:00:19;;;;;;;;;;;11.70;99.90;;;;;;5090654;28;19909;-65
2021/07/20 14:02:46;;;;;;;;;;;11.70;99.90;;;;;;5090489;28;20069;-65
2021/07/20 14:05:13;;;;;;;;;;;11.70;99.90;;;;;;5090231;28;19912;-65
2021/07/20 14:07:40;;;;;;;;;;;11.70;99.90;;;;;;5090068;28;19908;-65
2021/07/20 14:10:07;;;;;;;;;;;11.60;99.90;;;;;;5090367;28;20363;-65
2021/07/20 14:12:34;;;;;;;;;;;11.70;99.90;;;;;;5090231;28;19909;-66
2021/07/20 14:15:02;;;;;;;;;;;11.70;99.90;;;;;;5090178;28;20363;-65
2021/07/20 14:17:29;;;;;;;;;;;11.70;99.90;;;;;;5089920;28;20267;-65
2021/07/20 14:19:56;;;;;;;;;;;11.70;99.90;;;;;;5090345;28;19920;-65
2021/07/20 14:22:24;;;;;;;;;;;11.80;99.90;;;;;;5090384;28;20015;-65
2021/07/20 14:24:51;;;;;;;;;;;11.70;99.90;;;;;;5090365;28;20296;-66
2021/07/20 14:27:19;;;;;;;;;;;11.70;99.90;;;;;;5089969;28;20313;-65
2021/07/20 14:29:46;;;;;;;;;;;11.60;99.90;;;;;;5089534;28;20644;-65
2021/07/20 14:32:15;;;;;;;;;;;11.60;99.90;;;;;;5090176;28;19908;-67